sensor_id;sensor_type;location;lat;lon;timestamp;pressure;altitude;pressure_sealevel;temperature;humidity
17615;BME280;8926;49.720;6.576;2023-05-10T00:02:22;99108.78;;;14.44;91.76
17615;BME280;8926;49.720;6.576;2023-05-10T00:04:48;99105.75;;;14.49;90.82
17615;BME280;8926;49.720;6.576;2023-05-10T00:07:13;99105.75;;;14.49;90.92
17615;BME280;8926;49.720;6.576;2023-05-10T00:09:38;99104.94;;;14.48;90.69
17615;BME280;8926;49.720;6.576;2023-05-10T00:12:04;99099.09;;;14.45;90.63
17615;BME280;8926;49.720;6.576;2023-05-10T00:14:29;99105.31;;;14.44;91.22
17615;BME280;8926;49.720;6.576;2023-05-10T00:16:55;99111.28;;;14.46;90.52
17615;BME280;8926;49.720;6.576;2023-05-10T00:19:20;99113.19;;;14.44;90.59
17615;BME280;8926;49.720;6.576;2023-05-10T00:21:46;99107.94;;;14.44;91.27
17615;BME280;8926;49.720;6.576;2023-05-10T00:24:11;99102.44;;;14.47;91.71
17615;BME280;8926;49.720;6.576;2023-05-10T00:26:36;99097.75;;;14.50;91.38
17615;BME280;8926;49.720;6.576;2023-05-10T00:29:02;99099.00;;;14.56;91.22
17615;BME280;8926;49.720;6.576;2023-05-10T00:31:27;99100.44;;;14.60;91.37
17615;BME280;8926;49.720;6.576;2023-05-10T00:33:52;99107.22;;;14.63;90.82
17615;BME280;8926;49.720;6.576;2023-05-10T00:36:18;99109.47;;;14.67;91.68
17615;BME280;8926;49.720;6.576;2023-05-10T00:38:43;99105.63;;;14.71;91.29
17615;BME280;8926;49.720;6.576;2023-05-10T00:41:08;99113.28;;;14.74;90.81
17615;BME280;8926;49.720;6.576;2023-05-10T00:43:34;99111.59;;;14.73;89.69
17615;BME280;8926;49.720;6.576;2023-05-10T00:45:59;99098.72;;;14.70;89.78
17615;BME280;8926;49.720;6.576;2023-05-10T00:48:24;99098.13;;;14.67;89.20
17615;BME280;8926;49.720;6.576;2023-05-10T00:50:50;99099.47;;;14.61;89.31
17615;BME280;8926;49.720;6.576;2023-05-10T00:53:15;99102.22;;;14.59;89.11
17615;BME280;8926;49.720;6.576;2023-05-10T00:55:41;99100.97;;;14.54;89.43
17615;BME280;8926;49.720;6.576;2023-05-10T00:58:06;99096.66;;;14.53;89.13
17615;BME280;8926;49.720;6.576;2023-05-10T01:00:33;99101.59;;;14.46;89.34
17615;BME280;8926;49.720;6.576;2023-05-10T01:02:58;99103.38;;;14.46;89.16
17615;BME280;8926;49.720;6.576;2023-05-10T01:05:24;99103.97;;;14.38;89.41
17615;BME280;8926;49.720;6.576;2023-05-10T01:07:49;99112.22;;;14.34;89.60
17615;BME280;8926;49.720;6.576;2023-05-10T01:10:15;99110.13;;;14.27;89.90
17615;BME280;8926;49.720;6.576;2023-05-10T01:12:42;99115.63;;;14.24;90.15
17615;BME280;8926;49.720;6.576;2023-05-10T01:15:10;99111.34;;;14.23;90.58
17615;BME280;8926;49.720;6.576;2023-05-10T01:17:38;99123.53;;;14.24;91.06
17615;BME280;8926;49.720;6.576;2023-05-10T01:20:04;99120.38;;;14.31;91.18
17615;BME280;8926;49.720;6.576;2023-05-10T01:33:35;99107.94;;;14.44;90.08
17615;BME280;8926;49.720;6.576;2023-05-10T01:36:16;99113.31;;;14.42;90.23
17615;BME280;8926;49.720;6.576;2023-05-10T01:38:50;99117.25;;;14.37;90.18
17615;BME280;8926;49.720;6.576;2023-05-10T01:41:32;99120.00;;;14.35;89.83
17615;BME280;8926;49.720;6.576;2023-05-10T01:44:09;99125.50;;;14.32;89.91
17615;BME280;8926;49.720;6.576;2023-05-10T01:46:39;99126.34;;;14.33;90.19
17615;BME280;8926;49.720;6.576;2023-05-10T01:49:11;99128.97;;;14.33;90.05
17615;BME280;8926;49.720;6.576;2023-05-10T01:51:42;99128.25;;;14.31;89.86
17615;BME280;8926;49.720;6.576;2023-05-10T01:54:12;99137.94;;;14.30;89.38
17615;BME280;8926;49.720;6.576;2023-05-10T01:56:39;99135.44;;;14.29;89.32
17615;BME280;8926;49.720;6.576;2023-05-10T01:59:10;99128.25;;;14.31;90.14
17615;BME280;8926;49.720;6.576;2023-05-10T02:01:36;99129.66;;;14.35;90.33
17615;BME280;8926;49.720;6.576;2023-05-10T02:04:02;99133.13;;;14.35;90.14
17615;BME280;8926;49.720;6.576;2023-05-10T02:06:29;99131.34;;;14.36;89.71
17615;BME280;8926;49.720;6.576;2023-05-10T02:08:57;99135.38;;;14.40;89.57
17615;BME280;8926;49.720;6.576;2023-05-10T02:11:23;99137.81;;;14.43;89.62
17615;BME280;8926;49.720;6.576;2023-05-10T02:13:50;99136.97;;;14.42;89.46
17615;BME280;8926;49.720;6.576;2023-05-10T02:16:17;99143.06;;;14.43;89.19
17615;BME280;8926;49.720;6.576;2023-05-10T02:18:44;99142.22;;;14.42;89.54
17615;BME280;8926;49.720;6.576;2023-05-10T02:21:11;99144.97;;;14.41;89.99
17615;BME280;8926;49.720;6.576;2023-05-10T02:23:38;99139.94;;;14.38;89.82
17615;BME280;8926;49.720;6.576;2023-05-10T02:26:05;99149.50;;;14.39;89.55
17615;BME280;8926;49.720;6.576;2023-05-10T02:28:32;99137.94;;;14.41;88.87
17615;BME280;8926;49.720;6.576;2023-05-10T02:30:58;99145.69;;;14.43;89.67
17615;BME280;8926;49.720;6.576;2023-05-10T02:33:24;99141.13;;;14.45;90.09
17615;BME280;8926;49.720;6.576;2023-05-10T02:35:50;99139.22;;;14.47;89.67
17615;BME280;8926;49.720;6.576;2023-05-10T02:38:17;99137.56;;;14.46;89.65
17615;BME280;8926;49.720;6.576;2023-05-10T02:40:44;99137.56;;;14.46;89.97
17615;BME280;8926;49.720;6.576;2023-05-10T02:43:12;99131.09;;;14.50;90.03
17615;BME280;8926;49.720;6.576;2023-05-10T02:45:40;99135.38;;;14.51;89.76
17615;BME280;8926;49.720;6.576;2023-05-10T02:48:07;99133.47;;;14.53;89.67
17615;BME280;8926;49.720;6.576;2023-05-10T02:50:33;99133.47;;;14.53;90.16
17615;BME280;8926;49.720;6.576;2023-05-10T02:53:01;99129.88;;;14.54;90.31
17615;BME280;8926;49.720;6.576;2023-05-10T02:55:32;99128.91;;;14.55;89.93
17615;BME280;8926;49.720;6.576;2023-05-10T02:58:01;99125.28;;;14.56;90.05
17615;BME280;8926;49.720;6.576;2023-05-10T03:00:27;99130.44;;;14.57;90.38
17615;BME280;8926;49.720;6.576;2023-05-10T03:02:53;99132.94;;;14.59;89.92
17615;BME280;8926;49.720;6.576;2023-05-10T03:05:19;99141.53;;;14.61;90.22
17615;BME280;8926;49.720;6.576;2023-05-10T03:07:45;99137.22;;;14.60;90.15
17615;BME280;8926;49.720;6.576;2023-05-10T03:10:10;99131.84;;;14.62;89.76
17615;BME280;8926;49.720;6.576;2023-05-10T03:18:07;99140.31;;;14.65;89.77
17615;BME280;8926;49.720;6.576;2023-05-10T03:20:51;99141.03;;;14.67;89.68
17615;BME280;8926;49.720;6.576;2023-05-10T03:23:23;99141.97;;;14.66;88.61
17615;BME280;8926;49.720;6.576;2023-05-10T03:25:52;99143.44;;;14.59;89.88
17615;BME280;8926;49.720;6.576;2023-05-10T03:28:18;99142.63;;;14.58;90.15
17615;BME280;8926;49.720;6.576;2023-05-10T03:30:45;99145.94;;;14.60;90.20
17615;BME280;8926;49.720;6.576;2023-05-10T03:33:11;99152.03;;;14.61;89.89
17615;BME280;8926;49.720;6.576;2023-05-10T03:35:37;99152.75;;;14.63;89.94
17615;BME280;8926;49.720;6.576;2023-05-10T03:38:03;99155.97;;;14.67;90.34
17615;BME280;8926;49.720;6.576;2023-05-10T03:40:28;99156.81;;;14.67;89.50
17615;BME280;8926;49.720;6.576;2023-05-10T03:42:58;99160.63;;;14.63;89.56
17615;BME280;8926;49.720;6.576;2023-05-10T03:45:23;99156.81;;;14.67;90.40
17615;BME280;8926;49.720;6.576;2023-05-10T03:47:48;99155.84;;;14.68;90.40
17615;BME280;8926;49.720;6.576;2023-05-10T03:50:14;99144.38;;;14.69;90.49
17615;BME280;8926;49.720;6.576;2023-05-10T03:52:39;99156.28;;;14.73;90.36
17615;BME280;8926;49.720;6.576;2023-05-10T03:55:05;99152.72;;;14.74;90.96
17615;BME280;8926;49.720;6.576;2023-05-10T03:57:31;99150.78;;;14.76;90.12
17615;BME280;8926;49.720;6.576;2023-05-10T03:59:56;99151.50;;;14.78;89.87
17615;BME280;8926;49.720;6.576;2023-05-10T04:02:22;99152.47;;;14.77;89.71
17615;BME280;8926;49.720;6.576;2023-05-10T04:04:47;99147.44;;;14.74;89.79
17615;BME280;8926;49.720;6.576;2023-05-10T04:07:13;99146.63;;;14.74;89.31
17615;BME280;8926;49.720;6.576;2023-05-10T04:09:38;99140.53;;;14.73;89.60
17615;BME280;8926;49.720;6.576;2023-05-10T04:12:03;99142.44;;;14.71;88.72
17615;BME280;8926;49.720;6.576;2023-05-10T04:14:29;99135.78;;;14.67;89.58
17615;BME280;8926;49.720;6.576;2023-05-10T04:16:54;99135.78;;;14.67;90.05
17615;BME280;8926;49.720;6.576;2023-05-10T04:19:20;99142.69;;;14.68;89.82
17615;BME280;8926;49.720;6.576;2023-05-10T04:21:45;99147.00;;;14.69;89.72
17615;BME280;8926;49.720;6.576;2023-05-10T04:24:10;99151.28;;;14.70;89.46
17615;BME280;8926;49.720;6.576;2023-05-10T04:26:36;99149.63;;;14.69;89.65
17615;BME280;8926;49.720;6.576;2023-05-10T04:29:01;99149.38;;;14.72;89.79
17615;BME280;8926;49.720;6.576;2023-05-10T04:31:26;99156.28;;;14.73;89.09
17615;BME280;8926;49.720;6.576;2023-05-10T04:33:52;99152.97;;;14.71;88.87
17615;BME280;8926;49.720;6.576;2023-05-10T04:36:18;99155.13;;;14.66;88.51
17615;BME280;8926;49.720;6.576;2023-05-10T04:38:43;99153.00;;;14.60;88.59
17615;BME280;8926;49.720;6.576;2023-05-10T04:41:09;99159.22;;;14.59;89.52
17615;BME280;8926;49.720;6.576;2023-05-10T04:43:36;99163.41;;;14.62;89.82
17615;BME280;8926;49.720;6.576;2023-05-10T04:46:02;99167.56;;;14.64;89.57
17615;BME280;8926;49.720;6.576;2023-05-10T04:48:28;99180.00;;;14.62;88.79
17615;BME280;8926;49.720;6.576;2023-05-10T04:50:53;99183.00;;;14.57;89.12
17615;BME280;8926;49.720;6.576;2023-05-10T04:53:18;99190.06;;;14.57;90.19
17615;BME280;8926;49.720;6.576;2023-05-10T04:55:43;99190.06;;;14.57;89.33
17615;BME280;8926;49.720;6.576;2023-05-10T04:58:09;99191.00;;;14.56;89.74
17615;BME280;8926;49.720;6.576;2023-05-10T05:00:34;99192.69;;;14.57;88.93
17615;BME280;8926;49.720;6.576;2023-05-10T05:03:00;99194.63;;;14.55;89.49
17615;BME280;8926;49.720;6.576;2023-05-10T05:05:26;99187.72;;;14.54;89.17
17615;BME280;8926;49.720;6.576;2023-05-10T05:07:51;99200.13;;;14.52;88.63
17615;BME280;8926;49.720;6.576;2023-05-10T05:10:16;99202.06;;;14.50;88.45
17615;BME280;8926;49.720;6.576;2023-05-10T05:12:42;99202.06;;;14.50;88.31
17615;BME280;8926;49.720;6.576;2023-05-10T05:15:07;99205.41;;;14.52;88.31
17615;BME280;8926;49.720;6.576;2023-05-10T05:17:34;99217.56;;;14.53;87.45
17615;BME280;8926;49.720;6.576;2023-05-10T05:19:59;99226.66;;;14.49;87.77
17615;BME280;8926;49.720;6.576;2023-05-10T05:22:24;99227.88;;;14.45;88.21
17615;BME280;8926;49.720;6.576;2023-05-10T05:24:54;99234.69;;;14.47;88.08
17615;BME280;8926;49.720;6.576;2023-05-10T05:27:19;99235.75;;;14.45;88.34
17615;BME280;8926;49.720;6.576;2023-05-10T05:29:47;99242.44;;;14.49;88.67
17615;BME280;8926;49.720;6.576;2023-05-10T05:32:12;99243.41;;;14.48;88.43
17615;BME280;8926;49.720;6.576;2023-05-10T05:34:38;99245.78;;;14.51;89.11
17615;BME280;8926;49.720;6.576;2023-05-10T05:37:03;99243.59;;;14.56;88.66
17615;BME280;8926;49.720;6.576;2023-05-10T05:39:28;99241.66;;;14.58;88.93
17615;BME280;8926;49.720;6.576;2023-05-10T05:41:54;99237.00;;;14.62;87.34
17615;BME280;8926;49.720;6.576;2023-05-10T05:44:19;99238.56;;;14.64;86.81
17615;BME280;8926;49.720;6.576;2023-05-10T05:46:45;99243.94;;;14.63;86.53
17615;BME280;8926;49.720;6.576;2023-05-10T05:49:10;99243.22;;;14.60;86.48
17615;BME280;8926;49.720;6.576;2023-05-10T05:51:35;99241.19;;;14.64;86.15
17615;BME280;8926;49.720;6.576;2023-05-10T05:54:01;99243.69;;;14.66;86.61
17615;BME280;8926;49.720;6.576;2023-05-10T05:56:26;99247.38;;;14.74;86.59
17615;BME280;8926;49.720;6.576;2023-05-10T05:58:52;99245.19;;;14.79;86.61
17615;BME280;8926;49.720;6.576;2023-05-10T06:01:17;99244.53;;;14.87;86.02
17615;BME280;8926;49.720;6.576;2023-05-10T06:03:42;99245.50;;;14.86;85.66
17615;BME280;8926;49.720;6.576;2023-05-10T06:06:08;99249.09;;;14.85;86.16
17615;BME280;8926;49.720;6.576;2023-05-10T06:08:33;99260.66;;;14.93;86.36
17615;BME280;8926;49.720;6.576;2023-05-10T06:10:59;99259.22;;;15.01;86.68
17615;BME280;8926;49.720;6.576;2023-05-10T06:13:25;99262.56;;;15.03;85.97
17615;BME280;8926;49.720;6.576;2023-05-10T06:15:53;99266.31;;;15.10;84.20
17615;BME280;8926;49.720;6.576;2023-05-10T06:18:19;99274.75;;;15.04;84.79
17615;BME280;8926;49.720;6.576;2023-05-10T06:20:44;99272.53;;;15.09;85.13
17615;BME280;8926;49.720;6.576;2023-05-10T06:23:09;99283.06;;;15.09;84.59
17615;BME280;8926;49.720;6.576;2023-05-10T06:25:34;99271.41;;;15.02;84.26
17615;BME280;8926;49.720;6.576;2023-05-10T06:28:00;99279.06;;;14.93;83.85
17615;BME280;8926;49.720;6.576;2023-05-10T06:30:25;99283.88;;;14.88;84.78
17615;BME280;8926;49.720;6.576;2023-05-10T06:32:53;99294.22;;;14.80;84.69
17615;BME280;8926;49.720;6.576;2023-05-10T06:35:19;99296.38;;;14.75;84.64
17615;BME280;8926;49.720;6.576;2023-05-10T06:37:44;99295.53;;;14.75;84.28
17615;BME280;8926;49.720;6.576;2023-05-10T06:40:09;99296.84;;;14.69;84.38
17615;BME280;8926;49.720;6.576;2023-05-10T06:42:35;99300.44;;;14.68;84.32
17615;BME280;8926;49.720;6.576;2023-05-10T06:45:00;99299.97;;;14.74;84.24
17615;BME280;8926;49.720;6.576;2023-05-10T06:47:25;99307.38;;;14.69;84.43
17615;BME280;8926;49.720;6.576;2023-05-10T06:49:51;99304.53;;;14.61;83.11
17615;BME280;8926;49.720;6.576;2023-05-10T06:52:16;99313.59;;;14.57;81.80
17615;BME280;8926;49.720;6.576;2023-05-10T06:54:41;99317.94;;;14.47;81.39
17615;BME280;8926;49.720;6.576;2023-05-10T06:57:07;99311.97;;;14.45;81.65
17615;BME280;8926;49.720;6.576;2023-05-10T06:59:32;99319.84;;;14.45;82.13
17615;BME280;8926;49.720;6.576;2023-05-10T07:01:57;99317.47;;;14.53;81.01
17615;BME280;8926;49.720;6.576;2023-05-10T07:04:22;99315.03;;;14.61;81.10
17615;BME280;8926;49.720;6.576;2023-05-10T07:06:48;99322.19;;;14.70;80.74
17615;BME280;8926;49.720;6.576;2023-05-10T07:09:14;99321.81;;;14.75;80.80
17615;BME280;8926;49.720;6.576;2023-05-10T07:11:40;99318.56;;;14.82;80.21
17615;BME280;8926;49.720;6.576;2023-05-10T07:14:06;99315.25;;;14.80;80.36
17615;BME280;8926;49.720;6.576;2023-05-10T07:16:32;99319.16;;;14.86;80.12
17615;BME280;8926;49.720;6.576;2023-05-10T07:18:57;99319.41;;;14.83;79.61
17615;BME280;8926;49.720;6.576;2023-05-10T07:21:22;99318.31;;;14.85;79.77
17615;BME280;8926;49.720;6.576;2023-05-10T07:23:53;99322.50;;;14.88;79.65
17615;BME280;8926;49.720;6.576;2023-05-10T07:26:18;99323.19;;;14.90;80.00
17615;BME280;8926;49.720;6.576;2023-05-10T07:28:44;99321.41;;;14.90;80.08
17615;BME280;8926;49.720;6.576;2023-05-10T07:31:09;99321.16;;;14.93;80.04
17615;BME280;8926;49.720;6.576;2023-05-10T07:33:35;99325.94;;;15.00;80.04
17615;BME280;8926;49.720;6.576;2023-05-10T07:36:00;99327.25;;;14.94;80.02
17615;BME280;8926;49.720;6.576;2023-05-10T07:38:25;99312.91;;;14.98;79.98
17615;BME280;8926;49.720;6.576;2023-05-10T07:40:51;99332.41;;;14.96;79.64
17615;BME280;8926;49.720;6.576;2023-05-10T07:43:16;99325.94;;;15.00;80.00
17615;BME280;8926;49.720;6.576;2023-05-10T07:45:41;99322.09;;;15.04;80.02
17615;BME280;8926;49.720;6.576;2023-05-10T07:48:07;99324.19;;;15.10;79.80
17615;BME280;8926;49.720;6.576;2023-05-10T07:50:32;99331.00;;;15.12;79.31
17615;BME280;8926;49.720;6.576;2023-05-10T07:52:57;99328.38;;;15.12;79.73
17615;BME280;8926;49.720;6.576;2023-05-10T07:55:23;99332.31;;;15.18;78.81
17615;BME280;8926;49.720;6.576;2023-05-10T07:57:48;99326.22;;;15.17;78.36
17615;BME280;8926;49.720;6.576;2023-05-10T08:00:17;99328.00;;;15.17;78.85
17615;BME280;8926;49.720;6.576;2023-05-10T08:02:43;99328.00;;;15.17;79.06
17615;BME280;8926;49.720;6.576;2023-05-10T08:05:08;99321.06;;;15.16;79.55
17615;BME280;8926;49.720;6.576;2023-05-10T08:07:34;99311.47;;;15.26;79.68
17615;BME280;8926;49.720;6.576;2023-05-10T08:10:00;99324.31;;;15.40;78.16
17615;BME280;8926;49.720;6.576;2023-05-10T08:12:25;99327.13;;;15.48;77.32
17615;BME280;8926;49.720;6.576;2023-05-10T08:14:50;99312.75;;;15.52;77.21
17615;BME280;8926;49.720;6.576;2023-05-10T08:17:15;99323.44;;;15.72;77.49
17615;BME280;8926;49.720;6.576;2023-05-10T08:19:41;99315.19;;;15.86;76.78
17615;BME280;8926;49.720;6.576;2023-05-10T08:22:06;99319.22;;;16.11;76.51
17615;BME280;8926;49.720;6.576;2023-05-10T08:24:31;99309.91;;;16.56;74.90
17615;BME280;8926;49.720;6.576;2023-05-10T08:26:57;99308.72;;;16.40;74.15
17615;BME280;8926;49.720;6.576;2023-05-10T08:29:22;99315.09;;;16.27;74.33
17615;BME280;8926;49.720;6.576;2023-05-10T08:31:48;99316.16;;;16.15;75.01
17615;BME280;8926;49.720;6.576;2023-05-10T08:34:13;99330.84;;;15.87;76.50
17615;BME280;8926;49.720;6.576;2023-05-10T08:36:38;99337.16;;;15.54;78.92
17615;BME280;8926;49.720;6.576;2023-05-10T08:39:04;99346.13;;;15.31;80.27
17615;BME280;8926;49.720;6.576;2023-05-10T08:41:29;99357.19;;;15.14;81.25
17615;BME280;8926;49.720;6.576;2023-05-10T08:43:58;99355.81;;;14.99;81.08
17615;BME280;8926;49.720;6.576;2023-05-10T08:46:26;99366.41;;;14.76;81.71
17615;BME280;8926;49.720;6.576;2023-05-10T08:48:53;99370.47;;;14.69;82.82
17615;BME280;8926;49.720;6.576;2023-05-10T08:51:22;99373.81;;;14.71;81.96
17615;BME280;8926;49.720;6.576;2023-05-10T08:53:49;99366.41;;;14.76;81.77
17615;BME280;8926;49.720;6.576;2023-05-10T08:56:15;99375.34;;;14.85;81.43
17615;BME280;8926;49.720;6.576;2023-05-10T08:58:41;99372.59;;;14.86;81.21
17615;BME280;8926;49.720;6.576;2023-05-10T09:01:07;99381.19;;;14.88;81.09
17615;BME280;8926;49.720;6.576;2023-05-10T09:03:32;99380.09;;;14.91;81.19
17615;BME280;8926;49.720;6.576;2023-05-10T09:05:58;99377.13;;;14.96;81.04
17615;BME280;8926;49.720;6.576;2023-05-10T09:08:24;99376.38;;;15.05;81.07
17615;BME280;8926;49.720;6.576;2023-05-10T09:10:54;99379.31;;;15.11;80.77
17615;BME280;8926;49.720;6.576;2023-05-10T09:13:21;99378.38;;;15.12;80.76
17615;BME280;8926;49.720;6.576;2023-05-10T09:15:48;99375.63;;;15.14;80.70
17615;BME280;8926;49.720;6.576;2023-05-10T09:18:13;99368.69;;;15.13;80.34
17615;BME280;8926;49.720;6.576;2023-05-10T09:20:39;99378.47;;;15.22;81.05
17615;BME280;8926;49.720;6.576;2023-05-10T09:23:05;99381.22;;;15.20;80.47
17615;BME280;8926;49.720;6.576;2023-05-10T09:25:31;99380.13;;;15.23;80.04
17615;BME280;8926;49.720;6.576;2023-05-10T09:27:58;99387.56;;;15.18;79.99
17615;BME280;8926;49.720;6.576;2023-05-10T09:30:28;99389.97;;;15.10;79.03
17615;BME280;8926;49.720;6.576;2023-05-10T09:32:55;99391.94;;;14.97;79.50
17615;BME280;8926;49.720;6.576;2023-05-10T09:35:22;99394.09;;;15.03;78.93
17615;BME280;8926;49.720;6.576;2023-05-10T09:37:53;99394.81;;;14.93;77.83
17615;BME280;8926;49.720;6.576;2023-05-10T09:40:20;99399.59;;;15.00;77.45
17615;BME280;8926;49.720;6.576;2023-05-10T09:42:59;99405.44;;;15.03;77.26
17615;BME280;8926;49.720;6.576;2023-05-10T09:45:27;99406.03;;;15.07;77.25
17615;BME280;8926;49.720;6.576;2023-05-10T09:47:52;99409.09;;;15.12;77.49
17615;BME280;8926;49.720;6.576;2023-05-10T09:50:19;99401.94;;;15.14;76.03
17615;BME280;8926;49.720;6.576;2023-05-10T09:52:58;99412.44;;;15.14;75.84
17615;BME280;8926;49.720;6.576;2023-05-10T09:55:44;99408.63;;;15.18;75.21
17615;BME280;8926;49.720;6.576;2023-05-10T09:58:11;99413.63;;;15.21;75.79
17615;BME280;8926;49.720;6.576;2023-05-10T10:00:39;99404.03;;;15.31;76.09
17615;BME280;8926;49.720;6.576;2023-05-10T10:03:05;99406.50;;;15.44;75.59
17615;BME280;8926;49.720;6.576;2023-05-10T10:05:35;99409.22;;;15.53;76.00
17615;BME280;8926;49.720;6.576;2023-05-10T10:08:04;99410.38;;;15.60;75.03
17615;BME280;8926;49.720;6.576;2023-05-10T10:10:31;99402.19;;;15.75;74.33
17615;BME280;8926;49.720;6.576;2023-05-10T10:12:57;99394.63;;;15.81;74.99
17615;BME280;8926;49.720;6.576;2023-05-10T10:15:23;99397.53;;;15.88;74.71
17615;BME280;8926;49.720;6.576;2023-05-10T10:17:50;99405.28;;;15.80;73.36
17615;BME280;8926;49.720;6.576;2023-05-10T10:20:16;99407.72;;;15.72;73.41
17615;BME280;8926;49.720;6.576;2023-05-10T10:22:41;99415.66;;;15.60;73.50
17615;BME280;8926;49.720;6.576;2023-05-10T10:25:10;99411.38;;;15.48;73.39
17615;BME280;8926;49.720;6.576;2023-05-10T10:27:47;99414.97;;;15.47;73.21
17615;BME280;8926;49.720;6.576;2023-05-10T10:33:18;99414.03;;;15.37;73.34
17615;BME280;8926;49.720;6.576;2023-05-10T10:35:50;99410.22;;;15.41;73.86
17615;BME280;8926;49.720;6.576;2023-05-10T10:38:15;99403.47;;;15.48;73.64
17615;BME280;8926;49.720;6.576;2023-05-10T10:40:41;99396.97;;;15.64;73.83
17615;BME280;8926;49.720;6.576;2023-05-10T10:43:27;99399.56;;;15.75;73.52
17615;BME280;8926;49.720;6.576;2023-05-10T10:46:18;99387.94;;;15.77;72.08
17615;BME280;8926;49.720;6.576;2023-05-10T10:48:50;99396.16;;;15.84;71.78
17615;BME280;8926;49.720;6.576;2023-05-10T10:51:37;99399.88;;;16.02;72.97
17615;BME280;8926;49.720;6.576;2023-05-10T10:54:09;99397.53;;;16.29;72.05
17615;BME280;8926;49.720;6.576;2023-05-10T10:56:35;99392.84;;;16.43;70.78
17615;BME280;8926;49.720;6.576;2023-05-10T10:59:01;99399.97;;;16.52;70.91
17615;BME280;8926;49.720;6.576;2023-05-10T11:01:32;99401.28;;;16.67;69.32
17615;BME280;8926;49.720;6.576;2023-05-10T11:06:31;99398.00;;;16.75;67.71
17615;BME280;8926;49.720;6.576;2023-05-10T11:08:57;99395.22;;;16.76;67.04
17615;BME280;8926;49.720;6.576;2023-05-10T11:11:23;99395.25;;;16.86;67.08
17615;BME280;8926;49.720;6.576;2023-05-10T11:13:48;99394.69;;;16.82;65.45
17615;BME280;8926;49.720;6.576;2023-05-10T11:16:21;99397.47;;;16.90;65.78
17615;BME280;8926;49.720;6.576;2023-05-10T11:19:06;99395.38;;;16.84;65.39
17615;BME280;8926;49.720;6.576;2023-05-10T11:21:33;99393.97;;;16.80;67.68
17615;BME280;8926;49.720;6.576;2023-05-10T11:24:00;99400.53;;;16.95;67.65
17615;BME280;8926;49.720;6.576;2023-05-10T11:26:32;99406.13;;;17.12;66.71
17615;BME280;8926;49.720;6.576;2023-05-10T11:28:57;99406.13;;;17.12;65.64
17615;BME280;8926;49.720;6.576;2023-05-10T11:31:27;99405.84;;;17.05;66.18
17615;BME280;8926;49.720;6.576;2023-05-10T11:33:55;99409.16;;;17.17;66.33
17615;BME280;8926;49.720;6.576;2023-05-10T11:36:24;99402.78;;;17.19;66.03
17615;BME280;8926;49.720;6.576;2023-05-10T11:38:51;99401.00;;;17.29;65.34
17615;BME280;8926;49.720;6.576;2023-05-10T11:41:17;99403.34;;;17.42;64.57
17615;BME280;8926;49.720;6.576;2023-05-10T11:43:46;99403.13;;;17.65;64.79
17615;BME280;8926;49.720;6.576;2023-05-10T11:46:12;99390.31;;;17.79;64.18
17615;BME280;8926;49.720;6.576;2023-05-10T11:48:39;99394.59;;;17.90;64.36
17615;BME280;8926;49.720;6.576;2023-05-10T11:51:06;99392.25;;;17.87;62.35
17615;BME280;8926;49.720;6.576;2023-05-10T11:53:32;99397.81;;;17.84;63.08
17615;BME280;8926;49.720;6.576;2023-05-10T11:56:08;99393.50;;;17.73;61.71
17615;BME280;8926;49.720;6.576;2023-05-10T11:58:34;99396.00;;;17.75;61.47
17615;BME280;8926;49.720;6.576;2023-05-10T12:01:00;99392.25;;;17.87;63.30
17615;BME280;8926;49.720;6.576;2023-05-10T12:03:26;99397.63;;;17.95;60.28
17615;BME280;8926;49.720;6.576;2023-05-10T12:05:52;99400.53;;;18.02;61.81
17615;BME280;8926;49.720;6.576;2023-05-10T12:08:22;99403.22;;;17.92;61.08
17615;BME280;8926;49.720;6.576;2023-05-10T12:10:47;99400.88;;;17.89;62.35
17615;BME280;8926;49.720;6.576;2023-05-10T12:13:14;99395.88;;;17.86;61.27
17615;BME280;8926;49.720;6.576;2023-05-10T12:15:39;99394.16;;;18.04;61.21
17615;BME280;8926;49.720;6.576;2023-05-10T12:18:05;99386.56;;;18.28;60.91
17615;BME280;8926;49.720;6.576;2023-05-10T12:20:33;99387.59;;;18.18;59.72
17615;BME280;8926;49.720;6.576;2023-05-10T12:22:58;99391.66;;;18.03;59.82
17615;BME280;8926;49.720;6.576;2023-05-10T12:25:30;99400.03;;;17.88;60.06
17615;BME280;8926;49.720;6.576;2023-05-10T12:27:57;99402.53;;;17.71;59.22
17615;BME280;8926;49.720;6.576;2023-05-10T12:30:28;99397.25;;;17.61;60.63
17615;BME280;8926;49.720;6.576;2023-05-10T12:33:03;99410.88;;;17.56;60.55
17615;BME280;8926;49.720;6.576;2023-05-10T12:35:32;99412.53;;;17.48;58.94
17615;BME280;8926;49.720;6.576;2023-05-10T12:37:58;99405.31;;;17.69;59.10
17615;BME280;8926;49.720;6.576;2023-05-10T12:40:24;99402.22;;;17.93;58.99
17615;BME280;8926;49.720;6.576;2023-05-10T12:42:49;99394.38;;;18.20;59.48
17615;BME280;8926;49.720;6.576;2023-05-10T12:45:17;99406.94;;;18.18;58.40
17615;BME280;8926;49.720;6.576;2023-05-10T12:47:43;99402.06;;;18.04;57.62
17615;BME280;8926;49.720;6.576;2023-05-10T12:50:08;99394.97;;;18.14;57.80
17615;BME280;8926;49.720;6.576;2023-05-10T12:52:34;99408.00;;;18.25;57.40
17615;BME280;8926;49.720;6.576;2023-05-10T12:54:59;99406.66;;;18.02;56.07
17615;BME280;8926;49.720;6.576;2023-05-10T12:57:25;99401.94;;;18.06;56.97
17615;BME280;8926;49.720;6.576;2023-05-10T12:59:50;99398.88;;;18.01;56.92
17615;BME280;8926;49.720;6.576;2023-05-10T13:02:16;99399.72;;;18.01;57.44
17615;BME280;8926;49.720;6.576;2023-05-10T13:04:43;99397.94;;;17.92;57.10
17615;BME280;8926;49.720;6.576;2023-05-10T13:07:09;99395.69;;;18.98;54.92
17615;BME280;8926;49.720;6.576;2023-05-10T13:09:34;99402.44;;;18.56;56.04
17615;BME280;8926;49.720;6.576;2023-05-10T13:12:00;99396.75;;;18.51;54.71
17615;BME280;8926;49.720;6.576;2023-05-10T13:14:26;99400.72;;;18.37;54.87
17615;BME280;8926;49.720;6.576;2023-05-10T13:16:51;99401.75;;;18.63;54.03
17615;BME280;8926;49.720;6.576;2023-05-10T13:19:16;99392.41;;;18.69;52.49
17615;BME280;8926;49.720;6.576;2023-05-10T13:21:43;99391.56;;;18.69;53.13
17615;BME280;8926;49.720;6.576;2023-05-10T13:24:10;99385.22;;;18.79;53.51
17615;BME280;8926;49.720;6.576;2023-05-10T13:26:36;99384.59;;;18.95;54.78
17615;BME280;8926;49.720;6.576;2023-05-10T13:29:02;99371.13;;;19.06;51.90
17615;BME280;8926;49.720;6.576;2023-05-10T13:31:27;99383.09;;;18.92;53.45